sensor_id;sensor_type;location;lat;lon;timestamp;pressure;altitude;pressure_sealevel;temperature;humidity
3434;BME280;1730;41.932;25.548;2022-12-13T00:00:18;102159.34;;;7.43;100.00
3434;BME280;1730;41.932;25.548;2022-12-13T00:02:44;101587.84;;;4.21;100.00
3434;BME280;1730;41.932;25.548;2022-12-13T00:05:11;102144.06;;;7.45;100.00
3434;BME280;1730;41.932;25.548;2022-12-13T00:07:37;102125.19;;;7.27;100.00
3434;BME280;1730;41.932;25.548;2022-12-13T00:10:04;102135.81;;;7.50;100.00
3434;BME280;1730;41.932;25.548;2022-12-13T00:12:30;101943.84;;;6.39;100.00
3434;BME280;1730;41.932;25.548;2022-12-13T00:14:55;102144.56;;;7.75;100.00
3434;BME280;1730;41.932;25.548;2022-12-13T00:17:21;101902.31;;;6.49;100.00
3434;BME280;1730;41.932;25.548;2022-12-13T00:19:47;101897.03;;;6.47;100.00
3434;BME280;1730;41.932;25.548;2022-12-13T00:22:13;101873.97;;;6.43;100.00
3434;BME280;1730;41.932;25.548;2022-12-13T00:24:38;102031.06;;;7.31;100.00
3434;BME280;1730;41.932;25.548;2022-12-13T00:27:04;102025.88;;;7.27;100.00
3434;BME280;1730;41.932;25.548;2022-12-13T00:29:30;102016.69;;;7.12;100.00
3434;BME280;1730;41.932;25.548;2022-12-13T00:31:55;101896.03;;;6.28;100.00
3434;BME280;1730;41.932;25.548;2022-12-13T00:34:21;101679.25;;;5.19;100.00
3434;BME280;1730;41.932;25.548;2022-12-13T00:36:47;101854.50;;;6.18;100.00
3434;BME280;1730;41.932;25.548;2022-12-13T00:39:13;101687.44;;;5.36;100.00
3434;BME280;1730;41.932;25.548;2022-12-13T00:41:41;102004.28;;;7.30;100.00
3434;BME280;1730;41.932;25.548;2022-12-13T00:44:09;101995.34;;;7.29;100.00
3434;BME280;1730;41.932;25.548;2022-12-13T00:46:36;101403.59;;;3.99;100.00
3434;BME280;1730;41.932;25.548;2022-12-13T00:49:03;101971.50;;;7.23;100.00
3434;BME280;1730;41.932;25.548;2022-12-13T00:51:30;101913.19;;;7.27;100.00
3434;BME280;1730;41.932;25.548;2022-12-13T00:53:56;101871.69;;;7.15;100.00
3434;BME280;1730;41.932;25.548;2022-12-13T00:56:24;101899.91;;;7.42;100.00
3434;BME280;1730;41.932;25.548;2022-12-13T00:58:50;101864.25;;;7.40;100.00
3434;BME280;1730;41.932;25.548;2022-12-13T01:01:17;101847.00;;;7.46;100.00
3434;BME280;1730;41.932;25.548;2022-12-13T01:03:44;101860.06;;;7.72;100.00
3434;BME280;1730;41.932;25.548;2022-12-13T01:06:16;101842.19;;;7.71;100.00
3434;BME280;1730;41.932;25.548;2022-12-13T01:08:43;101263.28;;;4.56;100.00
3434;BME280;1730;41.932;25.548;2022-12-13T01:11:09;101758.13;;;7.69;100.00
3434;BME280;1730;41.932;25.548;2022-12-13T01:13:36;101731.75;;;7.77;100.00
3434;BME280;1730;41.932;25.548;2022-12-13T01:16:04;101379.66;;;5.97;100.00
3434;BME280;1730;41.932;25.548;2022-12-13T01:18:30;101630.47;;;7.81;100.00
3434;BME280;1730;41.932;25.548;2022-12-13T01:21:05;101638.75;;;7.93;100.00
3434;BME280;1730;41.932;25.548;2022-12-13T01:23:31;101596.66;;;8.09;100.00
3434;BME280;1730;41.932;25.548;2022-12-13T01:25:57;101559.84;;;8.11;100.00
3434;BME280;1730;41.932;25.548;2022-12-13T01:28:23;101144.75;;;5.83;100.00
3434;BME280;1730;41.932;25.548;2022-12-13T01:31:02;101117.25;;;5.80;100.00
3434;BME280;1730;41.932;25.548;2022-12-13T01:33:28;101433.34;;;7.67;100.00
3434;BME280;1730;41.932;25.548;2022-12-13T01:35:55;101286.31;;;6.93;100.00
3434;BME280;1730;41.932;25.548;2022-12-13T01:38:21;101433.81;;;7.91;100.00
3434;BME280;1730;41.932;25.548;2022-12-13T01:40:52;101079.22;;;5.92;100.00
3434;BME280;1730;41.932;25.548;2022-12-13T01:46:02;101380.78;;;7.79;100.00
3434;BME280;1730;41.932;25.548;2022-12-13T01:48:32;101412.84;;;7.98;100.00
3434;BME280;1730;41.932;25.548;2022-12-13T01:51:01;101399.22;;;8.16;100.00
3434;BME280;1730;41.932;25.548;2022-12-13T01:53:29;101347.75;;;8.08;100.00
3434;BME280;1730;41.932;25.548;2022-12-13T01:56:01;101333.91;;;8.16;100.00
3434;BME280;1730;41.932;25.548;2022-12-13T01:58:28;101272.75;;;7.90;100.00
3434;BME280;1730;41.932;25.548;2022-12-13T02:00:53;101135.69;;;7.16;100.00
3434;BME280;1730;41.932;25.548;2022-12-13T02:03:20;100951.56;;;5.93;100.00
3434;BME280;1730;41.932;25.548;2022-12-13T02:08:23;101286.72;;;7.81;100.00
3434;BME280;1730;41.932;25.548;2022-12-13T02:10:48;101222.56;;;7.29;100.00
3434;BME280;1730;41.932;25.548;2022-12-13T02:13:14;101143.31;;;7.23;100.00
3434;BME280;1730;41.932;25.548;2022-12-13T02:15:45;101224.09;;;7.80;100.00
3434;BME280;1730;41.932;25.548;2022-12-13T02:38:00;100917.69;;;7.28;100.00
3434;BME280;1730;41.932;25.548;2022-12-13T02:40:44;100869.19;;;7.17;100.00
3434;BME280;1730;41.932;25.548;2022-12-13T02:45:47;100346.03;;;4.60;100.00
3434;BME280;1730;41.932;25.548;2022-12-13T02:48:17;100786.97;;;7.44;100.00
3434;BME280;1730;41.932;25.548;2022-12-13T02:50:47;100713.41;;;7.20;100.00
3434;BME280;1730;41.932;25.548;2022-12-13T02:53:14;100529.50;;;6.36;100.00
3434;BME280;1730;41.932;25.548;2022-12-13T02:55:40;100510.81;;;6.48;100.00
3434;BME280;1730;41.932;25.548;2022-12-13T02:58:06;100557.25;;;7.02;100.00
3434;BME280;1730;41.932;25.548;2022-12-13T03:01:00;100533.22;;;7.01;100.00
3434;BME280;1730;41.932;25.548;2022-12-13T03:06:14;100263.91;;;6.02;100.00
3434;BME280;1730;41.932;25.548;2022-12-13T03:18:06;100218.97;;;6.20;100.00
3434;BME280;1730;41.932;25.548;2022-12-13T03:21:05;100155.16;;;5.74;100.00
3434;BME280;1730;41.932;25.548;2022-12-13T03:23:29;100108.31;;;5.42;100.00
3434;BME280;1730;41.932;25.548;2022-12-13T03:25:58;100205.06;;;5.88;100.00
3434;BME280;1730;41.932;25.548;2022-12-13T03:28:25;100208.88;;;5.84;100.00
3434;BME280;1730;41.932;25.548;2022-12-13T03:30:51;100273.44;;;6.06;100.00
3434;BME280;1730;41.932;25.548;2022-12-13T03:33:17;100085.75;;;4.92;100.00
3434;BME280;1730;41.932;25.548;2022-12-13T03:35:43;99991.78;;;4.18;100.00
3434;BME280;1730;41.932;25.548;2022-12-13T03:38:10;100187.88;;;5.38;100.00
3434;BME280;1730;41.932;25.548;2022-12-13T03:40:35;100189.03;;;5.61;100.00
3434;BME280;1730;41.932;25.548;2022-12-13T03:43:01;100267.13;;;6.07;100.00
3434;BME280;1730;41.932;25.548;2022-12-13T03:45:27;100122.50;;;5.30;100.00
3434;BME280;1730;41.932;25.548;2022-12-13T03:47:52;100004.97;;;4.48;100.00
3434;BME280;1730;41.932;25.548;2022-12-13T03:50:18;99992.22;;;4.39;100.00
3434;BME280;1730;41.932;25.548;2022-12-13T03:52:43;100340.72;;;6.14;100.00
3434;BME280;1730;41.932;25.548;2022-12-13T03:55:12;100176.41;;;5.36;100.00
3434;BME280;1730;41.932;25.548;2022-12-13T03:57:37;99985.50;;;4.33;100.00
3434;BME280;1730;41.932;25.548;2022-12-13T04:00:04;99878.19;;;3.87;100.00
3434;BME280;1730;41.932;25.548;2022-12-13T04:02:30;100116.28;;;5.29;100.00
3434;BME280;1730;41.932;25.548;2022-12-13T04:04:55;100101.69;;;4.94;100.00
3434;BME280;1730;41.932;25.548;2022-12-13T04:07:21;100241.56;;;5.62;100.00
3434;BME280;1730;41.932;25.548;2022-12-13T04:09:46;100285.41;;;5.74;100.00
3434;BME280;1730;41.932;25.548;2022-12-13T04:12:12;100316.38;;;5.50;100.00
3434;BME280;1730;41.932;25.548;2022-12-13T04:14:56;100353.25;;;5.44;100.00
3434;BME280;1730;41.932;25.548;2022-12-13T04:17:21;100221.28;;;4.76;100.00
3434;BME280;1730;41.932;25.548;2022-12-13T04:19:46;100363.28;;;5.27;100.00
3434;BME280;1730;41.932;25.548;2022-12-13T04:22:12;100349.53;;;5.19;100.00
3434;BME280;1730;41.932;25.548;2022-12-13T04:24:37;100354.50;;;5.11;100.00
3434;BME280;1730;41.932;25.548;2022-12-13T04:27:03;100406.50;;;5.35;100.00
3434;BME280;1730;41.932;25.548;2022-12-13T04:29:29;100013.81;;;3.07;100.00
3434;BME280;1730;41.932;25.548;2022-12-13T04:31:55;100141.41;;;4.01;100.00
3434;BME280;1730;41.932;25.548;2022-12-13T04:34:20;100045.09;;;3.47;100.00
3434;BME280;1730;41.932;25.548;2022-12-13T04:36:46;99866.88;;;2.41;100.00
3434;BME280;1730;41.932;25.548;2022-12-13T04:39:11;100328.16;;;5.47;100.00
3434;BME280;1730;41.932;25.548;2022-12-13T04:41:38;99871.94;;;2.89;100.00
3434;BME280;1730;41.932;25.548;2022-12-13T04:44:05;100336.91;;;5.77;100.00
3434;BME280;1730;41.932;25.548;2022-12-13T04:46:32;100300.31;;;5.64;100.00
3434;BME280;1730;41.932;25.548;2022-12-13T04:48:58;100289.47;;;5.53;100.00
3434;BME280;1730;41.932;25.548;2022-12-13T04:51:23;100263.06;;;5.20;100.00
3434;BME280;1730;41.932;25.548;2022-12-13T04:53:49;100312.69;;;5.38;100.00
3434;BME280;1730;41.932;25.548;2022-12-13T04:56:15;100309.31;;;5.49;100.00
3434;BME280;1730;41.932;25.548;2022-12-13T04:58:40;100219.47;;;4.77;100.00
3434;BME280;1730;41.932;25.548;2022-12-13T05:01:07;100038.69;;;3.80;100.00
3434;BME280;1730;41.932;25.548;2022-12-13T05:03:33;100261.03;;;5.37;100.00
3434;BME280;1730;41.932;25.548;2022-12-13T05:06:06;100260.25;;;5.35;100.00
3434;BME280;1730;41.932;25.548;2022-12-13T05:08:32;100232.63;;;5.49;100.00
3434;BME280;1730;41.932;25.548;2022-12-13T05:10:57;99694.66;;;2.43;100.00
3434;BME280;1730;41.932;25.548;2022-12-13T05:13:23;100139.47;;;5.02;100.00
3434;BME280;1730;41.932;25.548;2022-12-13T05:15:56;99757.44;;;2.75;100.00
3434;BME280;1730;41.932;25.548;2022-12-13T05:18:22;100056.75;;;4.60;100.00
3434;BME280;1730;41.932;25.548;2022-12-13T05:20:47;100183.03;;;5.31;100.00
3434;BME280;1730;41.932;25.548;2022-12-13T05:23:15;99941.97;;;4.04;100.00
3434;BME280;1730;41.932;25.548;2022-12-13T05:25:41;100142.66;;;5.48;100.00
3434;BME280;1730;41.932;25.548;2022-12-13T05:28:06;100090.75;;;5.11;100.00
3434;BME280;1730;41.932;25.548;2022-12-13T05:30:32;99748.31;;;3.34;100.00
3434;BME280;1730;41.932;25.548;2022-12-13T05:32:58;100087.41;;;5.22;100.00
3434;BME280;1730;41.932;25.548;2022-12-13T05:35:23;99946.72;;;4.94;100.00
3434;BME280;1730;41.932;25.548;2022-12-13T05:37:50;100039.03;;;5.64;100.00
3434;BME280;1730;41.932;25.548;2022-12-13T05:40:16;99855.63;;;4.59;100.00
3434;BME280;1730;41.932;25.548;2022-12-13T05:42:41;100003.28;;;5.65;100.00
3434;BME280;1730;41.932;25.548;2022-12-13T05:45:08;99978.78;;;5.59;100.00
3434;BME280;1730;41.932;25.548;2022-12-13T05:47:34;99949.44;;;5.44;100.00
3434;BME280;1730;41.932;25.548;2022-12-13T05:49:59;99835.69;;;4.77;100.00
3434;BME280;1730;41.932;25.548;2022-12-13T05:52:25;99787.16;;;4.58;100.00
3434;BME280;1730;41.932;25.548;2022-12-13T05:54:54;99827.88;;;4.99;100.00
3434;BME280;1730;41.932;25.548;2022-12-13T05:57:21;99761.94;;;4.62;100.00
3434;BME280;1730;41.932;25.548;2022-12-13T05:59:46;99899.63;;;5.56;100.00
3434;BME280;1730;41.932;25.548;2022-12-13T06:02:12;99907.94;;;5.77;100.00
3434;BME280;1730;41.932;25.548;2022-12-13T06:04:38;99873.91;;;5.66;100.00
3434;BME280;1730;41.932;25.548;2022-12-13T06:07:04;99577.78;;;3.99;100.00
3434;BME280;1730;41.932;25.548;2022-12-13T06:09:29;99860.28;;;5.82;100.00
3434;BME280;1730;41.932;25.548;2022-12-13T06:11:55;99736.38;;;5.21;100.00
3434;BME280;1730;41.932;25.548;2022-12-13T06:14:20;99758.09;;;5.77;100.00
3434;BME280;1730;41.932;25.548;2022-12-13T06:16:46;99665.53;;;5.27;100.00
3434;BME280;1730;41.932;25.548;2022-12-13T06:19:11;99626.63;;;5.23;100.00
3434;BME280;1730;41.932;25.548;2022-12-13T06:21:37;99744.78;;;6.12;100.00
3434;BME280;1730;41.932;25.548;2022-12-13T06:24:03;99451.56;;;4.59;100.00
3434;BME280;1730;41.932;25.548;2022-12-13T06:26:30;99272.94;;;3.73;100.00
3434;BME280;1730;41.932;25.548;2022-12-13T06:28:55;99652.22;;;5.85;100.00
3434;BME280;1730;41.932;25.548;2022-12-13T06:31:21;99248.34;;;3.33;100.00
3434;BME280;1730;41.932;25.548;2022-12-13T06:33:47;99639.16;;;5.70;100.00
3434;BME280;1730;41.932;25.548;2022-12-13T06:36:12;99408.38;;;4.17;100.00
3434;BME280;1730;41.932;25.548;2022-12-13T06:38:38;99648.97;;;5.93;100.00
3434;BME280;1730;41.932;25.548;2022-12-13T06:41:12;99526.50;;;5.16;100.00
3434;BME280;1730;41.932;25.548;2022-12-13T06:43:41;99288.44;;;3.55;100.00
3434;BME280;1730;41.932;25.548;2022-12-13T06:46:08;99652.75;;;5.91;100.00
3434;BME280;1730;41.932;25.548;2022-12-13T06:48:34;99661.44;;;6.05;100.00
3434;BME280;1730;41.932;25.548;2022-12-13T06:51:01;99535.03;;;5.56;100.00
3434;BME280;1730;41.932;25.548;2022-12-13T06:53:27;99321.63;;;4.35;100.00
3434;BME280;1730;41.932;25.548;2022-12-13T06:55:55;99484.53;;;5.40;100.00
3434;BME280;1730;41.932;25.548;2022-12-13T06:58:21;99618.91;;;6.58;100.00
3434;BME280;1730;41.932;25.548;2022-12-13T07:00:47;99164.78;;;3.34;100.00
3434;BME280;1730;41.932;25.548;2022-12-13T07:03:13;99061.19;;;3.30;100.00
3434;BME280;1730;41.932;25.548;2022-12-13T07:05:39;99535.91;;;6.36;100.00
3434;BME280;1730;41.932;25.548;2022-12-13T07:08:05;99528.59;;;6.49;100.00
3434;BME280;1730;41.932;25.548;2022-12-13T07:10:31;99541.00;;;6.39;100.00
3434;BME280;1730;41.932;25.548;2022-12-13T07:12:57;99518.91;;;6.79;100.00
3434;BME280;1730;41.932;25.548;2022-12-13T07:15:23;99469.13;;;6.66;100.00
3434;BME280;1730;41.932;25.548;2022-12-13T07:17:49;98835.50;;;3.32;100.00
3434;BME280;1730;41.932;25.548;2022-12-13T07:20:16;99416.34;;;6.77;100.00
3434;BME280;1730;41.932;25.548;2022-12-13T07:22:43;99396.03;;;6.96;100.00
3434;BME280;1730;41.932;25.548;2022-12-13T07:25:09;98879.44;;;3.82;100.00
3434;BME280;1730;41.932;25.548;2022-12-13T07:27:35;99372.19;;;6.93;100.00
3434;BME280;1730;41.932;25.548;2022-12-13T07:30:01;98859.72;;;3.62;100.00
3434;BME280;1730;41.932;25.548;2022-12-13T07:32:27;99094.19;;;5.51;100.00
3434;BME280;1730;41.932;25.548;2022-12-13T07:34:53;99183.81;;;6.30;100.00
3434;BME280;1730;41.932;25.548;2022-12-13T07:37:19;99292.78;;;7.22;100.00
3434;BME280;1730;41.932;25.548;2022-12-13T07:39:45;99279.25;;;7.23;100.00
3434;BME280;1730;41.932;25.548;2022-12-13T07:42:11;99245.87;;;7.16;100.00
3434;BME280;1730;41.932;25.548;2022-12-13T07:44:36;99251.56;;;7.23;100.00
3434;BME280;1730;41.932;25.548;2022-12-13T07:47:02;99078.75;;;6.47;100.00
3434;BME280;1730;41.932;25.548;2022-12-13T07:49:27;99256.69;;;7.36;100.00
3434;BME280;1730;41.932;25.548;2022-12-13T07:51:53;99259.91;;;6.99;100.00
3434;BME280;1730;41.932;25.548;2022-12-13T07:54:19;99011.53;;;5.69;100.00
3434;BME280;1730;41.932;25.548;2022-12-13T07:56:45;99215.59;;;7.25;100.00
3434;BME280;1730;41.932;25.548;2022-12-13T07:59:12;99216.09;;;7.50;100.00
3434;BME280;1730;41.932;25.548;2022-12-13T08:01:37;98476.78;;;3.42;100.00
3434;BME280;1730;41.932;25.548;2022-12-13T08:04:03;99188.66;;;7.46;100.00
3434;BME280;1730;41.932;25.548;2022-12-13T08:06:33;99041.28;;;6.97;100.00
3434;BME280;1730;41.932;25.548;2022-12-13T08:08:58;98859.06;;;5.29;100.00
3434;BME280;1730;41.932;25.548;2022-12-13T08:11:24;98941.34;;;5.76;100.00
3434;BME280;1730;41.932;25.548;2022-12-13T08:13:54;99184.13;;;7.37;100.00
3434;BME280;1730;41.932;25.548;2022-12-13T08:16:19;98899.38;;;5.47;100.00
3434;BME280;1730;41.932;25.548;2022-12-13T08:18:45;99029.78;;;6.26;100.00
3434;BME280;1730;41.932;25.548;2022-12-13T08:21:12;99193.75;;;7.40;100.00
3434;BME280;1730;41.932;25.548;2022-12-13T08:23:38;99112.81;;;7.06;100.00
3434;BME280;1730;41.932;25.548;2022-12-13T08:26:04;99178.97;;;7.64;100.00
3434;BME280;1730;41.932;25.548;2022-12-13T08:28:32;99179.97;;;7.73;100.00
3434;BME280;1730;41.932;25.548;2022-12-13T08:31:04;99140.66;;;7.34;100.00
3434;BME280;1730;41.932;25.548;2022-12-13T08:33:36;99149.28;;;7.47;100.00
3434;BME280;1730;41.932;25.548;2022-12-13T08:36:12;99128.28;;;7.71;100.00
3434;BME280;1730;41.932;25.548;2022-12-13T08:39:54;99102.00;;;7.55;100.00
3434;BME280;1730;41.932;25.548;2022-12-13T08:45:50;99194.28;;;7.34;100.00
3434;BME280;1730;41.932;25.548;2022-12-13T08:48:17;99104.97;;;7.62;100.00
3434;BME280;1730;41.932;25.548;2022-12-13T08:50:49;98971.16;;;6.32;100.00
3434;BME280;1730;41.932;25.548;2022-12-13T08:53:15;99119.38;;;7.90;100.00
3434;BME280;1730;41.932;25.548;2022-12-13T08:55:40;98905.84;;;6.83;100.00
3434;BME280;1730;41.932;25.548;2022-12-13T08:58:06;99056.53;;;7.25;100.00
3434;BME280;1730;41.932;25.548;2022-12-13T09:00:34;99057.53;;;7.72;100.00
3434;BME280;1730;41.932;25.548;2022-12-13T09:03:06;98982.59;;;7.13;100.00
3434;BME280;1730;41.932;25.548;2022-12-13T09:05:45;99024.91;;;7.77;100.00
3434;BME280;1730;41.932;25.548;2022-12-13T09:08:29;99008.38;;;7.62;100.00
3434;BME280;1730;41.932;25.548;2022-12-13T09:11:27;98838.03;;;6.54;100.00
3434;BME280;1730;41.932;25.548;2022-12-13T09:13:53;98408.53;;;3.50;100.00
3434;BME280;1730;41.932;25.548;2022-12-13T09:16:20;98993.03;;;7.06;100.00
3434;BME280;1730;41.932;25.548;2022-12-13T09:18:50;99000.38;;;7.14;100.00
3434;BME280;1730;41.932;25.548;2022-12-13T09:21:16;98974.25;;;7.54;100.00
3434;BME280;1730;41.932;25.548;2022-12-13T09:23:42;98993.38;;;7.79;100.00
3434;BME280;1730;41.932;25.548;2022-12-13T09:26:10;98987.06;;;7.60;100.00
3434;BME280;1730;41.932;25.548;2022-12-13T09:28:37;98941.66;;;8.23;100.00
3434;BME280;1730;41.932;25.548;2022-12-13T09:31:14;98917.59;;;7.67;100.00
3434;BME280;1730;41.932;25.548;2022-12-13T09:33:40;98906.13;;;7.18;100.00
3434;BME280;1730;41.932;25.548;2022-12-13T09:36:11;98908.72;;;7.47;100.00
3434;BME280;1730;41.932;25.548;2022-12-13T09:38:39;98891.69;;;7.76;100.00
3434;BME280;1730;41.932;25.548;2022-12-13T09:41:18;98844.13;;;7.68;100.00
3434;BME280;1730;41.932;25.548;2022-12-13T09:43:47;98720.78;;;6.19;100.00
3434;BME280;1730;41.932;25.548;2022-12-13T09:46:27;98877.28;;;7.40;100.00
3434;BME280;1730;41.932;25.548;2022-12-13T09:48:57;98784.16;;;7.59;100.00
3434;BME280;1730;41.932;25.548;2022-12-13T09:52:22;98715.66;;;7.10;100.00
3434;BME280;1730;41.932;25.548;2022-12-13T09:54:40;98116.38;;;3.21;100.00
3434;BME280;1730;41.932;25.548;2022-12-13T09:57:19;98825.06;;;7.34;100.00
3434;BME280;1730;41.932;25.548;2022-12-13T09:59:46;98825.56;;;7.10;100.00
3434;BME280;1730;41.932;25.548;2022-12-13T10:02:16;98823.41;;;7.23;100.00
3434;BME280;1730;41.932;25.548;2022-12-13T10:04:45;98844.59;;;7.17;100.00
3434;BME280;1730;41.932;25.548;2022-12-13T10:07:17;98814.44;;;6.96;100.00
3434;BME280;1730;41.932;25.548;2022-12-13T10:09:44;98277.38;;;4.06;100.00
3434;BME280;1730;41.932;25.548;2022-12-13T10:12:12;98847.81;;;7.11;100.00
3434;BME280;1730;41.932;25.548;2022-12-13T10:14:50;98671.16;;;6.44;100.00
3434;BME280;1730;41.932;25.548;2022-12-13T10:17:24;98793.16;;;7.41;100.00
3434;BME280;1730;41.932;25.548;2022-12-13T10:19:54;98805.22;;;7.17;100.00
3434;BME280;1730;41.932;25.548;2022-12-13T10:22:20;98796.87;;;7.20;100.00
3434;BME280;1730;41.932;25.548;2022-12-13T10:25:13;98692.28;;;6.47;100.00
3434;BME280;1730;41.932;25.548;2022-12-13T10:31:08;98374.97;;;4.66;100.00
3434;BME280;1730;41.932;25.548;2022-12-13T10:33:46;98828.94;;;7.86;100.00
3434;BME280;1730;41.932;25.548;2022-12-13T10:36:29;98655.34;;;6.60;100.00
3434;BME280;1730;41.932;25.548;2022-12-13T10:38:56;98835.78;;;7.34;100.00
3434;BME280;1730;41.932;25.548;2022-12-13T10:41:29;98316.25;;;4.76;100.00
3434;BME280;1730;41.932;25.548;2022-12-13T10:46:38;98825.78;;;7.91;100.00
3434;BME280;1730;41.932;25.548;2022-12-13T10:49:22;98798.13;;;8.08;100.00
3434;BME280;1730;41.932;25.548;2022-12-13T10:51:50;98793.12;;;7.95;100.00
3434;BME280;1730;41.932;25.548;2022-12-13T10:54:25;98796.75;;;8.04;100.00
3434;BME280;1730;41.932;25.548;2022-12-13T10:56:56;98861.03;;;7.78;100.00
3434;BME280;1730;41.932;25.548;2022-12-13T10:59:34;98372.19;;;5.43;100.00
3434;BME280;1730;41.932;25.548;2022-12-13T11:02:12;98787.78;;;8.13;100.00
3434;BME280;1730;41.932;25.548;2022-12-13T11:04:50;98785.34;;;8.20;100.00
3434;BME280;1730;41.932;25.548;2022-12-13T11:07:41;98785.78;;;7.97;100.00
3434;BME280;1730;41.932;25.548;2022-12-13T11:14:27;98119.19;;;3.38;100.00
3434;BME280;1730;41.932;25.548;2022-12-13T11:17:08;98790.13;;;7.81;100.00
3434;BME280;1730;41.932;25.548;2022-12-13T11:19:50;98304.03;;;4.06;100.00
3434;BME280;1730;41.932;25.548;2022-12-13T11:22:26;98612.19;;;6.90;100.00
3434;BME280;1730;41.932;25.548;2022-12-13T11:25:07;98786.75;;;7.79;100.00
3434;BME280;1730;41.932;25.548;2022-12-13T11:33:48;98431.50;;;6.12;100.00
3434;BME280;1730;41.932;25.548;2022-12-13T11:42:00;98785.28;;;8.11;100.00
3434;BME280;1730;41.932;25.548;2022-12-13T11:47:38;98652.34;;;7.27;100.00
3434;BME280;1730;41.932;25.548;2022-12-13T11:50:21;98762.94;;;7.93;100.00
3434;BME280;1730;41.932;25.548;2022-12-13T11:52:58;98658.16;;;7.50;100.00
3434;BME280;1730;41.932;25.548;2022-12-13T11:55:57;98753.97;;;8.02;100.00
3434;BME280;1730;41.932;25.548;2022-12-13T12:02:45;97988.41;;;3.03;100.00
3434;BME280;1730;41.932;25.548;2022-12-13T12:05:53;98758.41;;;7.94;100.00
3434;BME280;1730;41.932;25.548;2022-12-13T12:08:28;98750.44;;;8.20;100.00
3434;BME280;1730;41.932;25.548;2022-12-13T12:11:06;98613.69;;;7.47;100.00
3434;BME280;1730;41.932;25.548;2022-12-13T12:13:36;98732.47;;;7.85;100.00
3434;BME280;1730;41.932;25.548;2022-12-13T12:16:40;98727.13;;;8.20;100.00
3434;BME280;1730;41.932;25.548;2022-12-13T12:19:12;98499.97;;;6.87;100.00
3434;BME280;1730;41.932;25.548;2022-12-13T12:45:52;98732.19;;;8.84;100.00
3434;BME280;1730;41.932;25.548;2022-12-13T12:51:19;98681.41;;;7.77;100.00
3434;BME280;1730;41.932;25.548;2022-12-13T12:54:02;98713.06;;;8.26;100.00
3434;BME280;1730;41.932;25.548;2022-12-13T12:56:43;98714.53;;;8.38;100.00
3434;BME280;1730;41.932;25.548;2022-12-13T13:02:31;98721.28;;;8.07;100.00
3434;BME280;1730;41.932;25.548;2022-12-13T13:05:18;98717.72;;;7.71;100.00
3434;BME280;1730;41.932;25.548;2022-12-13T13:07:56;98727.31;;;7.46;100.00
3434;BME280;1730;41.932;25.548;2022-12-13T13:10:24;98741.84;;;7.53;100.00
3434;BME280;1730;41.932;25.548;2022-12-13T13:12:53;98750.56;;;7.55;100.00
3434;BME280;1730;41.932;25.548;2022-12-13T13:17:58;98756.69;;;7.48;100.00
3434;BME280;1730;41.932;25.548;2022-12-13T13:20:25;98742.94;;;6.96;100.00
3434;BME280;1730;41.932;25.548;2022-12-13T13:22:55;98722.41;;;6.58;100.00
3434;BME280;1730;41.932;25.548;2022-12-13T13:25:31;98685.72;;;5.93;100.00
3434;BME280;1730;41.932;25.548;2022-12-13T13:28:14;98657.69;;;6.26;100.00
3434;BME280;1730;41.932;25.548;2022-12-13T13:31:03;98776.50;;;6.91;100.00
3434;BME280;1730;41.932;25.548;2022-12-13T13:33:49;98778.97;;;6.65;100.00
3434;BME280;1730;41.932;25.548;2022-12-13T14:03:34;98932.94;;;6.80;100.00
3434;BME280;1730;41.932;25.548;2022-12-13T14:06:20;98937.44;;;6.79;100.00
3434;BME280;1730;41.932;25.548;2022-12-13T14:09:53;98957.22;;;6.29;100.00
3434;BME280;1730;41.932;25.548;2022-12-13T14:12:26;98900.47;;;6.64;100.00
3434;BME280;1730;41.932;25.548;2022-12-13T14:20:44;98929.66;;;6.57;100.00
3434;BME280;1730;41.932;25.548;2022-12-13T14:28:55;98822.16;;;5.93;100.00
3434;BME280;1730;41.932;25.548;2022-12-13T14:34:00;98977.97;;;6.46;100.00
3434;BME280;1730;41.932;25.548;2022-12-13T14:36:32;98934.44;;;6.63;100.00
3434;BME280;1730;41.932;25.548;2022-12-13T14:39:19;98369.75;;;3.37;100.00
3434;BME280;1730;41.932;25.548;2022-12-13T14:41:47;98351.50;;;3.32;100.00
3434;BME280;1730;41.932;25.548;2022-12-13T14:46:50;98897.81;;;6.73;100.00
3434;BME280;1730;41.932;25.548;2022-12-13T14:49:17;98896.69;;;6.57;100.00
3434;BME280;1730;41.932;25.548;2022-12-13T14:51:45;98904.81;;;6.46;100.00
3434;BME280;1730;41.932;25.548;2022-12-13T14:54:50;98903.97;;;6.45;100.00
3434;BME280;1730;41.932;25.548;2022-12-13T14:57:35;98969.38;;;6.43;100.00
3434;BME280;1730;41.932;25.548;2022-12-13T15:00:21;98862.75;;;5.98;100.00
3434;BME280;1730;41.932;25.548;2022-12-13T15:02:53;98909.31;;;6.45;100.00
3434;BME280;1730;41.932;25.548;2022-12-13T15:05:29;98863.94;;;6.34;100.00
3434;BME280;1730;41.932;25.548;2022-12-13T15:07:56;98913.03;;;6.54;100.00
3434;BME280;1730;41.932;25.548;2022-12-13T15:10:42;98922.03;;;6.53;100.00
3434;BME280;1730;41.932;25.548;2022-12-13T15:13:33;98433.31;;;3.00;100.00
3434;BME280;1730;41.932;25.548;2022-12-13T15:16:02;98932.38;;;6.17;100.00
3434;BME280;1730;41.932;25.548;2022-12-13T15:18:32;98919.63;;;5.91;100.00
3434;BME280;1730;41.932;25.548;2022-12-13T15:20:58;98893.66;;;5.51;100.00
3434;BME280;1730;41.932;25.548;2022-12-13T15:23:37;98517.91;;;3.28;100.00
3434;BME280;1730;41.932;25.548;2022-12-13T15:26:11;98889.28;;;5.50;100.00
3434;BME280;1730;41.932;25.548;2022-12-13T15:28:40;98935.19;;;5.55;100.00
3434;BME280;1730;41.932;25.548;2022-12-13T15:31:06;98952.88;;;5.77;100.00
3434;BME280;1730;41.932;25.548;2022-12-13T15:33:35;98940.38;;;5.77;100.00
3434;BME280;1730;41.932;25.548;2022-12-13T15:41:29;98953.38;;;5.61;100.00
3434;BME280;1730;41.932;25.548;2022-12-13T15:44:00;98958.47;;;5.64;100.00
3434;BME280;1730;41.932;25.548;2022-12-13T15:49:05;98970.53;;;5.59;100.00
3434;BME280;1730;41.932;25.548;2022-12-13T15:51:53;98998.88;;;5.71;100.00
3434;BME280;1730;41.932;25.548;2022-12-13T15:54:20;98983.84;;;5.70;100.00
3434;BME280;1730;41.932;25.548;2022-12-13T15:57:14;98837.59;;;4.68;100.00
3434;BME280;1730;41.932;25.548;2022-12-13T15:59:42;98998.00;;;5.61;100.00
3434;BME280;1730;41.932;25.548;2022-12-13T16:02:17;98837.44;;;4.70;100.00